Airfield :
LOGIN :

Register | Disclaimer

   EN    FR    IT 

 










Legend :    VFR   Marginal VFR   IFR   Intensive IFR   Very Intensive IFR
Visi :
Ceiling :
>= 8 km
>= 3000ft
5 to 8 km
1000 to 3000 ft
1500m to 5 km
500 to 1000 ft
800 to 1500m
200 to 500 ft
< 800m
< 200 ft
Symbols :   Thunderstorms  Fog  Heavy snow  Heavy precipitations  Wind > 20 kt
SIGMETs :     Misc.  Thunderstorms  Icing  Turbulence  Mountain Waves  Volcanic Ashes






- Airport Elevation : 226 ft
- IATA code : BEX


EGUB - RAF Benson

CURRENT METAR :
  • 011220Z 34003KT 2000 BR OVC003 05/05 Q1029 TEMPO 3000 BR BKN004 RMK YLO2 TEMPO YLO2

EXPIRED METARs :
  • 011150Z 32002KT 1800 BR OVC002 05/05 Q1029 TEMPO 2500 RMK AMB TEMPO YLO1
  • 011130Z 07002KT 1200 BR OVC002 05/05 Q1029 TEMPO 3000 SCT003 BKN048 RMK AMB TEMPO YLO2
  • 011107Z 01003KT 1000 BR OVC001 05/04 Q1029 TEMPO 3000 SCT003 BKN048 RMK RED TEMPO YLO2
  • 011050Z 03004KT 0250 FG VV/// 04/04 Q1030 TEMPO 2500 BR SCT003 BKN048 RMK RED TEMPO YLO2
  • 011020Z 03002KT 0150 FG VV/// 04/04 Q1030 TEMPO 3000 SCT003 BKN048 RMK RED TEMPO YLO2
  • 010950Z 01002KT 0150 FG VV/// 03/03 Q1030 NOSIG RMK RED RED

TAF TAF EGUB
Valid from the 01 at 12:00 until the 01 at 21:00 UTC


011043Z 0112/0121 VRB02KT 0200 FG VV///
PROB40
TEMPO 0112/0118 3000 BR SCT004
PROB30
TEMPO 0112/0118 5000 BR BKN040
ATIS : +44 1491-837766 (x7524)



MET'MAP, your aeronautical weather chart ! - Copyright ORBIFLY December 2007 - Disclaimer

ORBIFLY MET'MAP TEAM :

Programming & Development : Alexandra Zaïnal
Original concept : Baudouin d'Aumeries
Technical & hardware support : Manuel Goepfert
Assistance : Marc-Olivier Méhu




SOURCES & CREDITS :

   NOAA